createdAt,value
2023-01-21T00:02:14.178Z,10.93
2023-01-21T00:04:40.763Z,11.40
2023-01-21T00:07:07.943Z,10.25
2023-01-21T00:09:34.625Z,10.35
2023-01-21T00:12:03.947Z,11.63
2023-01-21T00:14:31.110Z,10.10
2023-01-21T00:16:58.336Z,11.35
2023-01-21T00:19:25.217Z,10.40
2023-01-21T00:21:51.936Z,10.35
2023-01-21T00:24:18.672Z,10.13
2023-01-21T00:26:45.256Z,10.65
2023-01-21T00:29:11.851Z,10.73
2023-01-21T00:31:38.524Z,10.10
2023-01-21T00:34:05.082Z,10.32
2023-01-21T00:36:31.713Z,9.82
2023-01-21T00:38:58.341Z,10.95
2023-01-21T00:41:25.288Z,9.98
2023-01-21T00:43:52.059Z,9.68
2023-01-21T00:46:18.711Z,11.27
2023-01-21T00:48:45.631Z,9.63
2023-01-21T00:51:12.393Z,10.70
2023-01-21T00:53:41.896Z,9.85
2023-01-21T00:56:09.836Z,10.70
2023-01-21T00:58:36.873Z,11.30
2023-01-21T01:01:13.869Z,10.55
2023-01-21T01:03:40.991Z,10.85
2023-01-21T01:06:09.100Z,10.15
2023-01-21T01:08:35.717Z,10.82
2023-01-21T01:11:02.765Z,10.57
2023-01-21T01:13:29.870Z,10.98
2023-01-21T01:15:57.953Z,10.52
2023-01-21T01:18:25.462Z,11.70
2023-01-21T01:20:52.204Z,11.98
2023-01-21T01:23:18.911Z,10.15
2023-01-21T01:25:54.332Z,11.07
2023-01-21T01:28:20.880Z,11.20
2023-01-21T01:30:47.619Z,10.93
2023-01-21T01:33:14.219Z,11.30
2023-01-21T01:35:42.012Z,11.77
2023-01-21T01:38:09.534Z,11.13
2023-01-21T01:40:37.569Z,11.60
2023-01-21T01:43:06.574Z,11.10
2023-01-21T01:45:33.299Z,11.40
2023-01-21T01:48:02.495Z,11.70
2023-01-21T01:50:32.521Z,12.98
2023-01-21T01:53:00.845Z,12.77
2023-01-21T01:55:29.318Z,12.88
2023-01-21T01:57:56.246Z,12.80
2023-01-21T02:00:23.934Z,13.27
2023-01-21T02:03:09.244Z,13.45
2023-01-21T02:05:37.132Z,15.10
2023-01-21T02:08:03.997Z,15.07
2023-01-21T02:10:31.796Z,14.82
2023-01-21T02:12:58.452Z,14.70
2023-01-21T02:15:28.214Z,15.68
2023-01-21T02:17:57.808Z,16.30
2023-01-21T02:20:30.362Z,16.48
2023-01-21T02:23:06.104Z,16.23
2023-01-21T02:25:35.378Z,16.58
2023-01-21T02:28:20.526Z,17.30
2023-01-21T02:30:50.181Z,16.52
2023-01-21T02:33:37.999Z,17.40
2023-01-21T02:36:23.536Z,17.63
2023-01-21T02:38:53.089Z,16.70
2023-01-21T02:41:38.273Z,17.58
2023-01-21T02:44:21.595Z,17.23
2023-01-21T02:46:55.567Z,17.30
2023-01-21T02:49:34.638Z,17.63
2023-01-21T02:52:01.267Z,17.08
2023-01-21T02:54:40.292Z,18.00
2023-01-21T02:57:07.792Z,17.08
2023-01-21T02:59:35.273Z,17.15
2023-01-21T03:02:04.900Z,17.48
2023-01-21T03:04:43.461Z,17.23
2023-01-21T03:07:15.860Z,18.65
2023-01-21T03:09:42.460Z,17.85
2023-01-21T03:12:18.318Z,16.98
2023-01-21T03:15:03.598Z,17.48
2023-01-21T03:17:36.119Z,18.13
2023-01-21T03:20:05.826Z,16.83
2023-01-21T03:22:34.955Z,18.35
2023-01-21T03:25:04.155Z,18.77
2023-01-21T03:27:31.928Z,17.42
2023-01-21T03:30:14.864Z,18.15
2023-01-21T03:32:43.528Z,17.77
2023-01-21T03:35:11.292Z,18.15
2023-01-21T03:37:43.459Z,17.60
2023-01-21T03:40:23.955Z,18.35
2023-01-21T03:42:51.032Z,17.30
2023-01-21T03:45:25.556Z,18.83
2023-01-21T03:47:54.902Z,18.60
2023-01-21T03:50:27.270Z,17.88
2023-01-21T03:52:53.927Z,18.23
2023-01-21T03:55:20.559Z,18.67
2023-01-21T03:57:47.198Z,18.15
2023-01-21T04:00:14.204Z,18.50
2023-01-21T04:02:40.899Z,17.67
2023-01-21T04:05:07.633Z,17.83
2023-01-21T04:07:34.247Z,17.48
2023-01-21T04:10:01.065Z,17.50
2023-01-21T04:12:27.671Z,18.77
2023-01-21T04:14:54.287Z,18.88
2023-01-21T04:17:21.022Z,19.45
2023-01-21T04:19:47.565Z,18.17
2023-01-21T04:22:14.125Z,18.70
2023-01-21T04:24:40.751Z,18.27
2023-01-21T04:27:07.742Z,19.83
2023-01-21T04:29:34.301Z,19.48
2023-01-21T04:32:00.931Z,18.67
2023-01-21T04:34:27.621Z,19.67
2023-01-21T04:36:54.219Z,20.23
2023-01-21T04:39:20.800Z,19.70
2023-01-21T04:41:47.468Z,18.83
2023-01-21T04:44:14.188Z,19.30
2023-01-21T04:46:40.767Z,19.13
2023-01-21T04:49:07.399Z,19.58
2023-01-21T04:51:33.954Z,21.38
2023-01-21T04:54:00.619Z,20.05
2023-01-21T04:56:27.163Z,20.77
2023-01-21T04:58:53.797Z,19.52
2023-01-21T05:01:20.426Z,21.17
2023-01-21T05:03:47.072Z,20.88
2023-01-21T05:06:13.808Z,21.27
2023-01-21T05:08:40.331Z,19.88
2023-01-21T05:11:11.204Z,21.67
2023-01-21T05:13:37.807Z,21.13
2023-01-21T05:16:05.741Z,20.33
2023-01-21T05:18:32.344Z,20.98
2023-01-21T05:20:58.951Z,20.15
2023-01-21T05:23:25.635Z,20.55
2023-01-21T05:25:52.261Z,21.83
2023-01-21T05:28:18.878Z,20.65
2023-01-21T05:30:45.431Z,20.88
2023-01-21T05:33:12.056Z,22.38
2023-01-21T05:35:38.655Z,21.70
2023-01-21T05:38:05.200Z,20.88
2023-01-21T05:40:31.882Z,23.10
2023-01-21T05:42:58.524Z,21.23
2023-01-21T05:45:27.838Z,20.63
2023-01-21T05:47:54.722Z,21.13
2023-01-21T05:50:21.323Z,21.55
2023-01-21T05:52:47.847Z,21.25
2023-01-21T05:55:14.534Z,21.55
2023-01-21T05:57:41.153Z,20.48
2023-01-21T06:00:08.192Z,22.40
2023-01-21T06:02:34.815Z,19.98
2023-01-21T06:05:01.408Z,21.52
2023-01-21T06:07:27.979Z,20.65
2023-01-21T06:09:54.588Z,21.77
2023-01-21T06:12:22.703Z,21.77
2023-01-21T06:14:50.364Z,20.05
2023-01-21T06:17:16.950Z,20.35
2023-01-21T06:19:43.573Z,20.40
2023-01-21T06:22:13.701Z,19.15
2023-01-21T06:24:40.352Z,20.83
2023-01-21T06:27:07.076Z,20.52
2023-01-21T06:29:33.673Z,21.10
2023-01-21T06:32:00.376Z,20.17
2023-01-21T06:34:27.042Z,21.13
2023-01-21T06:36:53.681Z,20.35
2023-01-21T06:39:20.330Z,20.83
2023-01-21T06:41:46.907Z,19.48
2023-01-21T06:44:13.531Z,20.05
2023-01-21T06:46:43.519Z,20.13
2023-01-21T06:49:12.537Z,19.58
2023-01-21T06:51:39.266Z,20.85
2023-01-21T06:54:05.982Z,19.23
2023-01-21T06:56:32.661Z,18.95
2023-01-21T06:58:59.340Z,18.27
2023-01-21T07:01:26.031Z,19.42
2023-01-21T07:03:52.752Z,20.52
2023-01-21T07:06:19.365Z,19.42
2023-01-21T07:08:45.964Z,18.95
2023-01-21T07:11:12.533Z,20.33
2023-01-21T07:13:39.205Z,20.70
2023-01-21T07:16:07.088Z,19.70
2023-01-21T07:18:33.834Z,19.88
2023-01-21T07:21:00.626Z,20.25
2023-01-21T07:23:27.316Z,19.67
2023-01-21T07:25:53.963Z,22.30
2023-01-21T07:28:20.644Z,21.08
2023-01-21T07:30:47.424Z,23.00
2023-01-21T07:33:15.189Z,21.25
2023-01-21T07:35:42.041Z,20.85
2023-01-21T07:38:08.713Z,25.30
2023-01-21T07:40:35.358Z,26.42
2023-01-21T07:43:01.957Z,22.60
2023-01-21T07:45:29.556Z,20.27
2023-01-21T07:47:56.161Z,21.77
2023-01-21T07:50:22.752Z,20.02
2023-01-21T07:52:49.308Z,20.50
2023-01-21T07:55:16.258Z,20.88
2023-01-21T07:57:43.041Z,20.13
2023-01-21T08:00:09.925Z,21.52
2023-01-21T08:02:39.735Z,23.80
2023-01-21T08:05:07.097Z,22.90
2023-01-21T08:07:33.850Z,23.85
2023-01-21T08:10:00.459Z,22.08
2023-01-21T08:12:27.409Z,21.55
2023-01-21T08:14:54.260Z,22.02
2023-01-21T08:17:20.886Z,21.50
2023-01-21T08:19:47.509Z,24.17
2023-01-21T08:22:14.129Z,24.55
2023-01-21T08:24:41.367Z,22.55
2023-01-21T08:27:07.971Z,21.13
2023-01-21T08:29:34.718Z,22.10
2023-01-21T08:32:01.314Z,21.92
2023-01-21T08:34:28.005Z,23.00
2023-01-21T08:36:54.719Z,21.98
2023-01-21T08:39:21.412Z,20.20
2023-01-21T08:41:48.057Z,20.15
2023-01-21T08:44:14.710Z,20.27
2023-01-21T08:46:42.583Z,18.15
2023-01-21T08:49:09.317Z,21.27
2023-01-21T08:51:35.892Z,20.55
2023-01-21T08:54:06.527Z,21.17
2023-01-21T08:56:33.155Z,20.00
2023-01-21T08:58:59.957Z,19.95
2023-01-21T09:01:26.677Z,20.35
2023-01-21T09:03:56.984Z,19.95
2023-01-21T09:06:24.596Z,19.73
2023-01-21T09:08:51.354Z,20.05
2023-01-21T09:11:18.081Z,17.60
2023-01-21T09:13:44.921Z,18.08
2023-01-21T09:16:13.485Z,19.50
2023-01-21T09:18:40.607Z,17.70
2023-01-21T09:21:07.469Z,17.50
2023-01-21T09:23:35.089Z,18.20
2023-01-21T09:26:07.713Z,18.88
2023-01-21T09:28:36.899Z,18.67
2023-01-21T09:31:07.657Z,17.17
2023-01-21T09:33:36.005Z,18.00
2023-01-21T09:36:04.597Z,18.30
2023-01-21T09:38:31.296Z,18.27
2023-01-21T09:41:02.689Z,18.83
2023-01-21T09:43:34.136Z,17.05
2023-01-21T09:46:04.125Z,15.15
2023-01-21T09:48:39.563Z,17.40
2023-01-21T09:51:12.779Z,15.55
2023-01-21T09:53:45.141Z,14.68
2023-01-21T09:56:22.758Z,13.50
2023-01-21T09:58:53.629Z,13.77
2023-01-21T10:01:26.436Z,12.52
2023-01-21T10:04:01.233Z,11.65
2023-01-21T10:06:30.795Z,11.40
2023-01-21T10:09:12.405Z,13.05
2023-01-21T10:11:43.084Z,8.63
2023-01-21T10:14:27.135Z,10.05
2023-01-21T10:17:06.901Z,10.40
2023-01-21T10:19:43.633Z,10.57
2023-01-21T10:22:12.684Z,10.40
2023-01-21T10:24:45.258Z,10.95
2023-01-21T10:27:22.086Z,11.07
2023-01-21T10:29:50.609Z,10.57
2023-01-21T10:32:20.527Z,9.77
2023-01-21T10:34:51.133Z,9.80
2023-01-21T10:37:29.786Z,11.20
2023-01-21T10:40:01.374Z,11.48
2023-01-21T10:42:34.230Z,10.48
2023-01-21T10:45:13.286Z,11.13
2023-01-21T10:47:44.596Z,11.27
2023-01-21T10:50:17.250Z,11.73
2023-01-21T10:52:46.396Z,11.52
2023-01-21T10:55:22.287Z,11.98
2023-01-21T10:57:55.126Z,12.18
2023-01-21T11:00:24.465Z,12.20
2023-01-21T11:02:54.178Z,11.35
2023-01-21T11:05:21.080Z,10.13
2023-01-21T11:07:48.221Z,11.75
2023-01-21T11:10:19.374Z,13.02
2023-01-21T11:12:45.920Z,12.50
2023-01-21T11:15:14.401Z,12.45
2023-01-21T11:17:42.246Z,11.25
2023-01-21T11:20:35.335Z,7.80
2023-01-21T11:23:05.957Z,11.38
2023-01-21T11:25:41.480Z,12.32
2023-01-21T11:28:24.993Z,12.90
2023-01-21T11:31:03.996Z,12.07
2023-01-21T11:33:30.733Z,12.23
2023-01-21T11:36:08.729Z,13.25
2023-01-21T11:38:36.215Z,10.30
2023-01-21T11:41:04.570Z,10.60
2023-01-21T11:43:41.622Z,12.05
2023-01-21T11:46:25.228Z,9.65
2023-01-21T11:48:56.030Z,13.32
2023-01-21T11:51:22.707Z,11.88
2023-01-21T11:53:51.199Z,13.05
2023-01-21T11:56:18.138Z,12.10
2023-01-21T11:58:44.845Z,11.65
2023-01-21T12:01:18.937Z,8.60
2023-01-21T12:03:48.033Z,12.57
2023-01-21T12:06:19.173Z,12.90
2023-01-21T12:08:48.541Z,11.75
2023-01-21T12:11:19.190Z,10.10
2023-01-21T12:13:58.367Z,9.77
2023-01-21T12:16:33.201Z,13.50
2023-01-21T12:19:08.942Z,13.13
2023-01-21T12:21:35.552Z,13.20
2023-01-21T12:24:20.802Z,13.70
2023-01-21T12:26:50.928Z,14.38
2023-01-21T12:29:23.769Z,13.48
2023-01-21T12:32:01.554Z,13.30
2023-01-21T12:34:40.693Z,14.05
2023-01-21T12:37:25.907Z,14.20
2023-01-21T12:39:53.758Z,12.55
2023-01-21T12:42:29.389Z,11.95
2023-01-21T12:44:59.219Z,13.25
2023-01-21T12:48:04.441Z,13.75
2023-01-21T12:50:41.196Z,13.65
2023-01-21T12:53:10.595Z,13.93
2023-01-21T12:55:56.172Z,13.63
2023-01-21T12:58:25.174Z,12.25
2023-01-21T13:00:52.836Z,12.80
2023-01-21T13:03:38.437Z,13.63
2023-01-21T13:06:17.304Z,13.25
2023-01-21T13:08:51.168Z,12.27
2023-01-21T13:11:22.169Z,12.25
2023-01-21T13:13:54.274Z,12.90
2023-01-21T13:16:22.559Z,13.23
2023-01-21T13:18:51.699Z,12.80
2023-01-21T13:21:33.160Z,12.18
2023-01-21T13:24:22.934Z,11.90
2023-01-21T13:27:04.628Z,12.40
2023-01-21T13:29:32.025Z,13.20
2023-01-21T13:32:17.439Z,11.90
2023-01-21T13:34:47.143Z,10.82
2023-01-21T13:37:18.526Z,12.57
2023-01-21T13:39:52.909Z,13.35
2023-01-21T13:42:41.248Z,11.85
2023-01-21T13:45:07.883Z,12.95
2023-01-21T13:47:57.601Z,11.48
2023-01-21T13:50:29.046Z,11.50
2023-01-21T13:53:01.774Z,12.15
2023-01-21T13:55:31.626Z,12.32
2023-01-21T13:58:13.130Z,12.23
2023-01-21T14:00:44.781Z,11.23
2023-01-21T14:03:17.547Z,11.75
2023-01-21T14:05:50.020Z,11.32
2023-01-21T14:08:16.607Z,12.25
2023-01-21T14:10:46.598Z,11.90
2023-01-21T14:13:33.491Z,12.00
2023-01-21T14:16:06.354Z,11.52
2023-01-21T14:18:32.995Z,11.88
2023-01-21T14:21:08.775Z,12.52
2023-01-21T14:23:38.344Z,12.73
2023-01-21T14:26:31.032Z,11.73
2023-01-21T14:28:57.644Z,11.38
2023-01-21T14:31:27.464Z,10.98
2023-01-21T14:34:11.440Z,11.13
2023-01-21T14:36:38.014Z,11.98
2023-01-21T14:39:15.279Z,12.25
2023-01-21T14:41:53.911Z,12.32
2023-01-21T14:44:39.209Z,12.52
2023-01-21T14:47:16.003Z,12.30
2023-01-21T14:49:44.629Z,12.77
2023-01-21T14:52:19.179Z,11.82
2023-01-21T14:54:46.426Z,11.80
2023-01-21T14:57:21.801Z,11.00
2023-01-21T14:59:49.344Z,10.55
2023-01-21T15:02:22.461Z,12.27
2023-01-21T15:04:58.701Z,11.57
2023-01-21T15:07:29.494Z,11.93
2023-01-21T15:09:57.666Z,9.93
2023-01-21T15:12:27.274Z,11.15
2023-01-21T15:15:01.348Z,11.30
2023-01-21T15:17:44.551Z,11.07
2023-01-21T15:20:29.975Z,10.68
2023-01-21T15:23:15.607Z,9.80
2023-01-21T15:26:02.259Z,9.73
2023-01-21T15:28:34.943Z,10.90
2023-01-21T15:31:03.075Z,10.40
2023-01-21T15:33:30.326Z,10.40
2023-01-21T15:35:57.928Z,10.48
2023-01-21T15:38:24.968Z,10.20
2023-01-21T15:40:57.729Z,8.77
2023-01-21T15:43:30.107Z,10.07
2023-01-21T15:45:56.782Z,9.70
2023-01-21T15:48:42.687Z,9.32
2023-01-21T15:51:12.458Z,10.07
2023-01-21T15:53:39.136Z,10.05
2023-01-21T15:56:05.719Z,10.00
2023-01-21T15:58:50.655Z,10.13
2023-01-21T16:01:32.793Z,9.35
2023-01-21T16:04:22.731Z,10.63
2023-01-21T16:06:56.768Z,9.30
2023-01-21T16:09:42.218Z,9.52
2023-01-21T16:12:14.681Z,9.75
2023-01-21T16:14:41.299Z,10.60
2023-01-21T16:17:20.066Z,10.93
2023-01-21T16:19:49.690Z,10.15
2023-01-21T16:22:18.958Z,10.35
2023-01-21T16:24:49.722Z,10.13
2023-01-21T16:27:35.317Z,9.60
2023-01-21T16:30:03.900Z,10.13
2023-01-21T16:32:32.391Z,9.85
2023-01-21T16:34:59.252Z,9.50
2023-01-21T16:37:29.737Z,8.88
2023-01-21T16:40:16.211Z,9.40
2023-01-21T16:42:42.984Z,9.02
2023-01-21T16:45:20.839Z,9.18
2023-01-21T16:47:53.388Z,10.32
2023-01-21T16:50:21.332Z,9.93
2023-01-21T16:52:48.307Z,10.05
2023-01-21T16:55:22.193Z,9.75
2023-01-21T16:57:50.300Z,9.77
2023-01-21T17:00:22.986Z,9.93
2023-01-21T17:02:49.572Z,9.98
2023-01-21T17:05:16.534Z,10.18
2023-01-21T17:07:51.864Z,9.45
2023-01-21T17:10:20.589Z,9.77
2023-01-21T17:12:48.205Z,9.38
2023-01-21T17:15:23.888Z,9.82
2023-01-21T17:17:54.486Z,8.77
2023-01-21T17:20:50.671Z,10.00
2023-01-21T17:23:29.381Z,8.60
2023-01-21T17:26:02.232Z,9.55
2023-01-21T17:28:31.950Z,9.45
2023-01-21T17:31:28.168Z,8.73
2023-01-21T17:34:18.454Z,9.25
2023-01-21T17:36:46.175Z,8.77
2023-01-21T17:39:13.147Z,8.35
2023-01-21T17:41:41.301Z,9.00
2023-01-21T17:44:16.657Z,8.77
2023-01-21T17:46:47.303Z,9.35
2023-01-21T17:49:18.497Z,8.85
2023-01-21T17:51:45.337Z,9.13
2023-01-21T17:54:20.366Z,9.65
2023-01-21T17:56:57.254Z,8.60
2023-01-21T17:59:40.766Z,9.27
2023-01-21T18:02:11.366Z,8.75
2023-01-21T18:04:38.194Z,9.15
2023-01-21T18:07:07.281Z,8.30
2023-01-21T18:09:34.369Z,8.45
2023-01-21T18:12:01.024Z,8.90
2023-01-21T18:14:28.829Z,9.52
2023-01-21T18:16:57.849Z,8.38
2023-01-21T18:19:34.527Z,7.75
2023-01-21T18:22:02.037Z,8.48
2023-01-21T18:24:28.753Z,7.90
2023-01-21T18:26:57.452Z,6.97
2023-01-21T18:29:27.755Z,8.32
2023-01-21T18:31:54.377Z,8.30
2023-01-21T18:34:21.207Z,8.73
2023-01-21T18:36:47.868Z,8.73
2023-01-21T18:39:17.018Z,8.27
2023-01-21T18:41:45.878Z,8.05
2023-01-21T18:44:12.756Z,8.52
2023-01-21T18:46:42.184Z,6.68
2023-01-21T18:49:18.899Z,6.43
2023-01-21T18:51:46.010Z,8.57
2023-01-21T18:54:16.382Z,7.57
2023-01-21T18:56:43.307Z,7.78
2023-01-21T18:59:13.901Z,8.50
2023-01-21T19:01:41.416Z,8.07
2023-01-21T19:04:09.784Z,8.00
2023-01-21T19:06:36.755Z,8.48
2023-01-21T19:09:03.477Z,8.68
2023-01-21T19:11:30.059Z,7.47
2023-01-21T19:13:56.672Z,9.05
2023-01-21T19:16:23.465Z,8.23
2023-01-21T19:18:50.465Z,8.20
2023-01-21T19:21:17.048Z,7.57
2023-01-21T19:23:43.713Z,8.13
2023-01-21T19:26:12.087Z,8.18
2023-01-21T19:28:38.699Z,8.00
2023-01-21T19:31:05.484Z,7.80
2023-01-21T19:33:32.151Z,8.48
2023-01-21T19:36:11.203Z,8.23
2023-01-21T19:38:37.794Z,7.60
2023-01-21T19:41:05.477Z,8.23
2023-01-21T19:43:32.418Z,7.47
2023-01-21T19:45:59.159Z,7.25
2023-01-21T19:48:27.461Z,7.30
2023-01-21T19:50:54.108Z,8.30
2023-01-21T19:53:22.354Z,7.60
2023-01-21T19:55:51.949Z,6.97
2023-01-21T19:58:20.032Z,7.22
2023-01-21T20:00:49.136Z,7.30
2023-01-21T20:03:17.022Z,7.38
2023-01-21T20:05:43.699Z,7.45
2023-01-21T20:08:12.362Z,7.65
2023-01-21T20:10:38.984Z,7.72
2023-01-21T20:13:08.994Z,7.13
2023-01-21T20:15:35.775Z,6.95
2023-01-21T20:18:03.433Z,7.40
2023-01-21T20:20:31.713Z,7.05
2023-01-21T20:22:59.157Z,7.28
2023-01-21T20:25:29.009Z,7.03
2023-01-21T20:27:57.336Z,7.60
2023-01-21T20:30:31.404Z,6.90
2023-01-21T20:32:58.304Z,7.20
2023-01-21T20:35:26.972Z,7.40
2023-01-21T20:37:54.796Z,6.22
2023-01-21T20:40:21.355Z,6.25
2023-01-21T20:42:48.776Z,6.30
2023-01-21T20:45:16.801Z,6.72
2023-01-21T20:47:49.996Z,5.80
2023-01-21T20:50:25.868Z,5.53
2023-01-21T20:52:53.261Z,5.50
2023-01-21T20:55:21.546Z,5.97
2023-01-21T20:57:48.428Z,5.50
2023-01-21T21:00:19.836Z,5.38
2023-01-21T21:02:46.592Z,5.50
2023-01-21T21:05:13.876Z,5.97
2023-01-21T21:07:40.945Z,5.63
2023-01-21T21:10:14.023Z,5.30
2023-01-21T21:12:40.947Z,5.80
2023-01-21T21:15:08.705Z,5.35
2023-01-21T21:17:35.276Z,5.30
2023-01-21T21:20:01.861Z,5.10
2023-01-21T21:22:28.499Z,5.13
2023-01-21T21:24:55.011Z,5.18
2023-01-21T21:27:21.628Z,5.35
2023-01-21T21:29:48.358Z,5.72
2023-01-21T21:32:15.239Z,5.13
2023-01-21T21:34:42.788Z,5.38
2023-01-21T21:37:11.874Z,5.32
2023-01-21T21:39:38.541Z,5.50
2023-01-21T21:42:23.604Z,5.05
2023-01-21T21:44:50.345Z,4.97
2023-01-21T21:47:35.571Z,5.60
2023-01-21T21:50:02.152Z,5.30
2023-01-21T21:52:30.311Z,5.45
2023-01-21T21:54:56.996Z,5.43
2023-01-21T21:57:23.609Z,4.90
2023-01-21T21:59:50.323Z,5.38
2023-01-21T22:02:17.030Z,5.47
2023-01-21T22:04:43.755Z,5.53
2023-01-21T22:07:10.878Z,5.13
2023-01-21T22:09:37.675Z,5.07
2023-01-21T22:12:04.452Z,5.25
2023-01-21T22:14:31.252Z,5.65
2023-01-21T22:16:57.942Z,4.82
2023-01-21T22:19:24.695Z,5.43
2023-01-21T22:21:51.508Z,5.25
2023-01-21T22:24:18.186Z,5.57
2023-01-21T22:26:44.906Z,5.28
2023-01-21T22:29:12.513Z,6.53
2023-01-21T22:31:39.214Z,6.43
2023-01-21T22:34:05.892Z,5.63
2023-01-21T22:36:32.853Z,5.40
2023-01-21T22:38:59.663Z,6.18
2023-01-21T22:41:26.688Z,5.93
2023-01-21T22:43:53.856Z,5.82
2023-01-21T22:46:21.984Z,5.45
2023-01-21T22:48:48.936Z,5.70
2023-01-21T22:51:16.425Z,5.90
2023-01-21T22:53:46.079Z,5.43
2023-01-21T22:56:13.699Z,5.57
2023-01-21T22:58:40.596Z,7.13
2023-01-21T23:01:07.670Z,6.82
2023-01-21T23:03:34.441Z,6.00
2023-01-21T23:06:07.306Z,6.03
2023-01-21T23:08:35.933Z,5.80
2023-01-21T23:11:03.759Z,5.93
2023-01-21T23:13:31.044Z,6.28
2023-01-21T23:15:57.857Z,6.07
2023-01-21T23:18:25.833Z,5.88
2023-01-21T23:20:52.560Z,6.20
2023-01-21T23:23:19.309Z,6.18
2023-01-21T23:25:46.595Z,7.05
2023-01-21T23:28:13.968Z,6.20
2023-01-21T23:30:40.938Z,6.22
2023-01-21T23:33:07.681Z,5.95
2023-01-21T23:35:34.991Z,6.03
2023-01-21T23:38:02.139Z,6.10
2023-01-21T23:40:28.753Z,6.25
2023-01-21T23:42:55.360Z,6.47
2023-01-21T23:45:22.000Z,5.90
2023-01-21T23:47:48.650Z,6.65
2023-01-21T23:50:15.477Z,6.78
2023-01-21T23:52:42.174Z,5.85
2023-01-21T23:55:10.147Z,6.20
2023-01-21T23:57:37.121Z,6.53
